Nearby METAR Reports

 

K9MN - St Mary Hospital, Minnesota, USA
Distance from station: SW 3mi, 4km
Updated: 05/31/2023 4:35am
Clear
Clear
 Wind from SE
Wind: SE 5 mph , 7 km/h
Temperature: 66°F , 19°C
Dew Point: 50°F , 10°C
Humidity: 56%
Barometer: 29.92 inHg , 1013.2 hPa
Clouds: Clear
Visibility: 10 miles , 16 km
2023/05/31 09:35 K9MN 310935Z AUTO 13004KT 10SM CLR 19/10 A2992 RMK AO1 T01910098
KRST - Rochester, Minnesota, USA
Distance from station: SSW 10mi, 16km
Updated: 05/31/2023 3:54am
Clear
Clear
 Wind from SSE
Wind: SSE 7 mph , 11 km/h
Temperature: 63°F , 17°C
Dew Point: 52°F , 11°C
Humidity: 68%
Barometer: 29.91 inHg , 1012.9 hPa
Clouds: Clear
Visibility: 10 miles , 16 km
2023/05/31 08:54 KRST 310854Z AUTO 16006KT 10SM CLR 17/11 A2991 RMK AO2 SLP119 T01720111 51004
 
KTOB - Dodge Center, Minnesota, USA
Distance from station: W 19mi, 30km
Updated: 05/31/2023 4:35am
Clear
Clear
 Wind from SE
Wind: SE 6 mph , 9 km/h
Temperature: 61°F , 16°C
Dew Point: 55°F , 13°C
Humidity: 83%
Barometer: 29.91 inHg , 1012.9 hPa
Clouds: Clear
Visibility: 10 miles , 16 km
2023/05/31 09:35 KTOB 310935Z AUTO 14005KT 10SM CLR 16/13 A2991 RMK AO2
KFKA - Preston, Minnesota, USA
Distance from station: SSE 28mi, 45km
Updated: 05/31/2023 4:35am
Few Clouds
Few Clouds
 Wind from S
Wind: S 6 mph , 9 km/h
Temperature: 63°F , 17°C
Dew Point: 50°F , 10°C
Humidity: 64%
Barometer: 29.92 inHg , 1013.2 hPa
Clouds: Few Clouds
Visibility: 10 miles , 16 km
Cloud details: Few Clouds 7500 ft
2023/05/31 09:35 KFKA 310935Z AUTO 17005KT 10SM FEW075 17/10 A2992 RMK AO2
 
KAUM - Austin Muni, Minnesota, USA
Distance from station: SW 35mi, 57km
Updated: 05/31/2023 4:36am
Clear
Clear
 Wind from S
Wind: S 3 mph , 6 km/h
Temperature: 66°F , 19°C
Dew Point: 57°F , 14°C
Humidity: 73%
Barometer: 29.92 inHg , 1013.2 hPa
Clouds: Clear
Visibility: 10 miles , 16 km
2023/05/31 09:36 KAUM 310936Z AUTO 17003KT 10SM CLR 19/14 A2992 RMK AO2 LTG DSNT S
KONA - Winona Muni, Minnesota, USA
Distance from station: E 37mi, 59km
Updated: 05/31/2023 4:35am
Clear
Clear
 Wind from SSE
Wind: SSE 5 mph , 7 km/h
Temperature: 64°F , 18°C
Dew Point: 52°F , 11°C
Humidity: 64%
Barometer: 29.92 inHg , 1013.2 hPa
Clouds: Clear
Visibility: 10 miles , 16 km
2023/05/31 09:35 KONA 310935Z AUTO 16004KT 10SM CLR 18/11 A2992 RMK AO2
 
KRGK - Red Wing, Minnesota, USA
Distance from station: N 38mi, 61km
Updated: 05/31/2023 4:35am
Clear
Clear
 Wind from calm
Wind: Calm
Temperature: 61°F , 16°C
Dew Point: 57°F , 14°C
Humidity: 88%
Barometer: 29.89 inHg , 1012.2 hPa
Clouds: Clear
Visibility: 10 miles , 16 km
2023/05/31 09:35 KRGK 310935Z AUTO 00000KT 10SM CLR 16/14 A2989 RMK AO2
KOWA - Owatonna, Minnesota, USA
Distance from station: W 41mi, 65km
Updated: 05/31/2023 4:33am
Clear
Clear
 Wind from SSE
Wind: SSE 7 mph , 11 km/h
Temperature: 64°F , 18°C
Dew Point: 57°F , 14°C
Humidity: 78%
Barometer: 29.89 inHg , 1012.2 hPa
Clouds: Clear
Visibility: 10 miles , 16 km
2023/05/31 09:33 KOWA 310933Z AUTO 16006KT 10SM CLR 18/14 A2989 RMK AO2
 
KSYN - Stanton, Minnesota, USA
Distance from station: NW 42mi, 68km
Updated: 05/31/2023 4:35am
Clear
Clear
 Wind from calm
Wind: Calm
Temperature: 66°F , 19°C
Dew Point: 57°F , 14°C
Humidity: 73%
Barometer: 29.88 inHg , 1011.9 hPa
Clouds: Clear
Visibility: 10 miles , 16 km
2023/05/31 09:35 KSYN 310935Z AUTO 00000KT 10SM CLR 19/14 A2988 RMK AO2 T01900140
KFBL - Faribault Muni, Minnesota, USA
Distance from station: WNW 48mi, 77km
Updated: 05/31/2023 4:35am
Clear
Clear
 Wind from calm
Wind: Calm
Temperature: 61°F , 16°C
Dew Point: 57°F , 14°C
Humidity: 88%
Barometer: 29.89 inHg , 1012.2 hPa
Clouds: Clear
Visibility: 10 miles , 16 km
2023/05/31 09:35 KFBL 310935Z AUTO 00000KT 10SM CLR 16/14 A2989 RMK AO2